sensor_id;sensor_type;location;lat;lon;timestamp;temperature;humidity
35258;DHT22;21385;50.878;8.050;2024-02-16T00:00:17;12.40;99.90
35258;DHT22;21385;50.878;8.050;2024-02-16T00:02:43;12.40;99.90
35258;DHT22;21385;50.878;8.050;2024-02-16T00:05:09;12.40;99.90
35258;DHT22;21385;50.878;8.050;2024-02-16T00:07:37;12.40;99.90
35258;DHT22;21385;50.878;8.050;2024-02-16T00:10:03;12.40;99.90
35258;DHT22;21385;50.878;8.050;2024-02-16T00:12:33;12.40;99.90
35258;DHT22;21385;50.878;8.050;2024-02-16T00:14:59;12.40;99.90
35258;DHT22;21385;50.878;8.050;2024-02-16T00:17:25;12.40;99.90
35258;DHT22;21385;50.878;8.050;2024-02-16T00:19:57;12.40;99.90
35258;DHT22;21385;50.878;8.050;2024-02-16T00:22:23;12.40;99.90
35258;DHT22;21385;50.878;8.050;2024-02-16T00:24:48;12.30;99.90
35258;DHT22;21385;50.878;8.050;2024-02-16T00:27:14;12.40;99.90
35258;DHT22;21385;50.878;8.050;2024-02-16T00:29:43;12.30;99.90
35258;DHT22;21385;50.878;8.050;2024-02-16T00:32:09;12.40;99.90
35258;DHT22;21385;50.878;8.050;2024-02-16T00:34:36;12.40;99.90
35258;DHT22;21385;50.878;8.050;2024-02-16T00:37:02;12.40;99.90
35258;DHT22;21385;50.878;8.050;2024-02-16T00:39:30;12.30;99.90
35258;DHT22;21385;50.878;8.050;2024-02-16T00:41:56;12.30;99.90
35258;DHT22;21385;50.878;8.050;2024-02-16T00:44:21;12.40;99.90
35258;DHT22;21385;50.878;8.050;2024-02-16T00:46:47;12.40;99.90
35258;DHT22;21385;50.878;8.050;2024-02-16T00:49:13;12.40;99.90
35258;DHT22;21385;50.878;8.050;2024-02-16T00:51:40;12.40;99.90
35258;DHT22;21385;50.878;8.050;2024-02-16T00:54:06;12.40;99.90
35258;DHT22;21385;50.878;8.050;2024-02-16T00:56:34;12.40;99.90
35258;DHT22;21385;50.878;8.050;2024-02-16T00:59:00;12.40;99.90
35258;DHT22;21385;50.878;8.050;2024-02-16T01:01:26;12.40;99.90
35258;DHT22;21385;50.878;8.050;2024-02-16T01:03:54;12.40;99.90
35258;DHT22;21385;50.878;8.050;2024-02-16T01:06:20;12.40;99.90
35258;DHT22;21385;50.878;8.050;2024-02-16T01:08:46;12.40;99.90
35258;DHT22;21385;50.878;8.050;2024-02-16T01:11:14;12.40;99.90
35258;DHT22;21385;50.878;8.050;2024-02-16T01:13:40;12.40;99.90
35258;DHT22;21385;50.878;8.050;2024-02-16T01:16:06;12.40;99.90
35258;DHT22;21385;50.878;8.050;2024-02-16T01:18:32;12.30;99.90
35258;DHT22;21385;50.878;8.050;2024-02-16T01:20:58;12.30;99.90
35258;DHT22;21385;50.878;8.050;2024-02-16T01:23:24;12.30;99.90
35258;DHT22;21385;50.878;8.050;2024-02-16T01:25:50;12.30;99.90
35258;DHT22;21385;50.878;8.050;2024-02-16T01:28:15;12.30;99.90
35258;DHT22;21385;50.878;8.050;2024-02-16T01:30:41;12.30;99.90
35258;DHT22;21385;50.878;8.050;2024-02-16T01:33:07;12.30;99.90
35258;DHT22;21385;50.878;8.050;2024-02-16T01:35:33;12.40;99.90
35258;DHT22;21385;50.878;8.050;2024-02-16T01:37:59;12.40;99.90
35258;DHT22;21385;50.878;8.050;2024-02-16T01:40:26;12.30;99.90
35258;DHT22;21385;50.878;8.050;2024-02-16T01:42:52;12.40;99.90
35258;DHT22;21385;50.878;8.050;2024-02-16T01:45:23;12.40;99.90
35258;DHT22;21385;50.878;8.050;2024-02-16T01:47:51;12.40;99.90
35258;DHT22;21385;50.878;8.050;2024-02-16T01:50:18;12.40;99.90
35258;DHT22;21385;50.878;8.050;2024-02-16T01:52:45;12.40;99.90
35258;DHT22;21385;50.878;8.050;2024-02-16T01:55:12;12.30;99.90
35258;DHT22;21385;50.878;8.050;2024-02-16T01:57:45;12.30;99.90
35258;DHT22;21385;50.878;8.050;2024-02-16T02:00:11;12.20;99.90
35258;DHT22;21385;50.878;8.050;2024-02-16T02:02:37;12.30;99.90
35258;DHT22;21385;50.878;8.050;2024-02-16T02:05:03;12.30;99.90
35258;DHT22;21385;50.878;8.050;2024-02-16T02:07:29;12.20;99.90
35258;DHT22;21385;50.878;8.050;2024-02-16T02:09:55;12.20;99.90
35258;DHT22;21385;50.878;8.050;2024-02-16T02:12:21;12.10;99.90
35258;DHT22;21385;50.878;8.050;2024-02-16T02:14:48;12.20;99.90
35258;DHT22;21385;50.878;8.050;2024-02-16T02:17:14;12.10;99.90
35258;DHT22;21385;50.878;8.050;2024-02-16T02:19:40;12.10;99.90
35258;DHT22;21385;50.878;8.050;2024-02-16T02:22:21;12.20;99.90
35258;DHT22;21385;50.878;8.050;2024-02-16T02:24:47;12.20;99.90
35258;DHT22;21385;50.878;8.050;2024-02-16T02:27:14;12.10;99.90
35258;DHT22;21385;50.878;8.050;2024-02-16T02:29:40;12.10;99.90
35258;DHT22;21385;50.878;8.050;2024-02-16T02:32:07;12.10;99.90
35258;DHT22;21385;50.878;8.050;2024-02-16T02:34:32;12.10;99.90
35258;DHT22;21385;50.878;8.050;2024-02-16T02:36:58;12.10;99.90
35258;DHT22;21385;50.878;8.050;2024-02-16T02:39:24;12.10;99.90
35258;DHT22;21385;50.878;8.050;2024-02-16T02:41:50;12.10;99.90
35258;DHT22;21385;50.878;8.050;2024-02-16T02:44:15;12.10;99.90
35258;DHT22;21385;50.878;8.050;2024-02-16T02:46:41;12.10;99.90
35258;DHT22;21385;50.878;8.050;2024-02-16T02:49:06;12.10;99.90
35258;DHT22;21385;50.878;8.050;2024-02-16T02:51:32;12.10;99.90
35258;DHT22;21385;50.878;8.050;2024-02-16T02:53:58;12.10;99.90
35258;DHT22;21385;50.878;8.050;2024-02-16T02:56:23;12.10;99.90
35258;DHT22;21385;50.878;8.050;2024-02-16T02:58:49;12.10;99.90
35258;DHT22;21385;50.878;8.050;2024-02-16T03:01:14;12.10;99.90
35258;DHT22;21385;50.878;8.050;2024-02-16T03:03:40;12.10;99.90
35258;DHT22;21385;50.878;8.050;2024-02-16T03:06:07;12.10;99.90
35258;DHT22;21385;50.878;8.050;2024-02-16T03:08:33;12.00;99.90
35258;DHT22;21385;50.878;8.050;2024-02-16T03:11:00;12.10;99.90
35258;DHT22;21385;50.878;8.050;2024-02-16T03:13:26;12.10;99.90
35258;DHT22;21385;50.878;8.050;2024-02-16T03:15:52;12.10;99.90
35258;DHT22;21385;50.878;8.050;2024-02-16T03:18:18;12.10;99.90
35258;DHT22;21385;50.878;8.050;2024-02-16T03:20:45;12.20;99.90
35258;DHT22;21385;50.878;8.050;2024-02-16T03:23:13;12.20;99.90
35258;DHT22;21385;50.878;8.050;2024-02-16T03:25:39;12.20;99.90
35258;DHT22;21385;50.878;8.050;2024-02-16T03:28:05;12.20;99.90
35258;DHT22;21385;50.878;8.050;2024-02-16T03:30:30;12.20;99.90
35258;DHT22;21385;50.878;8.050;2024-02-16T03:32:56;12.20;99.90
35258;DHT22;21385;50.878;8.050;2024-02-16T03:35:21;12.20;99.90
35258;DHT22;21385;50.878;8.050;2024-02-16T03:37:47;12.20;99.90
35258;DHT22;21385;50.878;8.050;2024-02-16T03:40:13;12.20;99.90
35258;DHT22;21385;50.878;8.050;2024-02-16T03:42:39;12.20;99.90
35258;DHT22;21385;50.878;8.050;2024-02-16T03:45:06;12.20;99.90
35258;DHT22;21385;50.878;8.050;2024-02-16T03:47:32;12.20;99.90
35258;DHT22;21385;50.878;8.050;2024-02-16T03:49:58;12.20;99.90
35258;DHT22;21385;50.878;8.050;2024-02-16T03:52:23;12.20;99.90
35258;DHT22;21385;50.878;8.050;2024-02-16T03:54:49;12.20;99.90
35258;DHT22;21385;50.878;8.050;2024-02-16T03:57:16;12.20;99.90
35258;DHT22;21385;50.878;8.050;2024-02-16T03:59:45;12.20;99.90
35258;DHT22;21385;50.878;8.050;2024-02-16T04:02:12;12.30;99.90
35258;DHT22;21385;50.878;8.050;2024-02-16T04:04:39;12.30;99.90
35258;DHT22;21385;50.878;8.050;2024-02-16T04:07:05;12.30;99.90
35258;DHT22;21385;50.878;8.050;2024-02-16T04:09:35;12.40;99.90
35258;DHT22;21385;50.878;8.050;2024-02-16T04:12:01;12.30;99.90
35258;DHT22;21385;50.878;8.050;2024-02-16T04:14:29;12.30;99.90
35258;DHT22;21385;50.878;8.050;2024-02-16T04:16:55;12.30;99.90
35258;DHT22;21385;50.878;8.050;2024-02-16T04:19:24;12.30;99.90
35258;DHT22;21385;50.878;8.050;2024-02-16T04:21:49;12.30;99.90
35258;DHT22;21385;50.878;8.050;2024-02-16T04:24:15;12.20;99.90
35258;DHT22;21385;50.878;8.050;2024-02-16T04:26:41;12.20;99.90
35258;DHT22;21385;50.878;8.050;2024-02-16T04:29:06;12.30;99.90
35258;DHT22;21385;50.878;8.050;2024-02-16T04:31:32;12.20;99.90
35258;DHT22;21385;50.878;8.050;2024-02-16T04:33:57;12.20;99.90
35258;DHT22;21385;50.878;8.050;2024-02-16T04:36:23;12.30;99.90
35258;DHT22;21385;50.878;8.050;2024-02-16T04:38:48;12.30;99.90
35258;DHT22;21385;50.878;8.050;2024-02-16T04:41:14;12.30;99.90
35258;DHT22;21385;50.878;8.050;2024-02-16T04:43:41;12.20;99.90
35258;DHT22;21385;50.878;8.050;2024-02-16T04:46:06;12.20;99.90
35258;DHT22;21385;50.878;8.050;2024-02-16T04:48:32;12.20;99.90
35258;DHT22;21385;50.878;8.050;2024-02-16T04:50:59;12.20;99.90
35258;DHT22;21385;50.878;8.050;2024-02-16T04:53:25;12.20;99.90
35258;DHT22;21385;50.878;8.050;2024-02-16T04:55:50;12.30;99.90
35258;DHT22;21385;50.878;8.050;2024-02-16T04:58:16;12.20;99.90
35258;DHT22;21385;50.878;8.050;2024-02-16T05:00:42;12.20;99.90
35258;DHT22;21385;50.878;8.050;2024-02-16T05:03:08;12.20;99.90
35258;DHT22;21385;50.878;8.050;2024-02-16T05:05:33;12.10;99.90
35258;DHT22;21385;50.878;8.050;2024-02-16T05:07:59;12.10;99.90
35258;DHT22;21385;50.878;8.050;2024-02-16T05:10:25;12.00;99.90
35258;DHT22;21385;50.878;8.050;2024-02-16T05:12:51;11.90;99.90
35258;DHT22;21385;50.878;8.050;2024-02-16T05:15:16;11.90;99.90
35258;DHT22;21385;50.878;8.050;2024-02-16T05:17:42;11.80;99.90
35258;DHT22;21385;50.878;8.050;2024-02-16T05:20:11;11.90;99.90
35258;DHT22;21385;50.878;8.050;2024-02-16T05:22:44;11.90;99.90
35258;DHT22;21385;50.878;8.050;2024-02-16T05:25:11;11.90;99.90
35258;DHT22;21385;50.878;8.050;2024-02-16T05:27:37;11.90;99.90
35258;DHT22;21385;50.878;8.050;2024-02-16T05:30:04;11.80;99.90
35258;DHT22;21385;50.878;8.050;2024-02-16T05:32:37;11.80;99.90
35258;DHT22;21385;50.878;8.050;2024-02-16T05:35:07;11.80;99.90
35258;DHT22;21385;50.878;8.050;2024-02-16T05:37:49;11.80;99.90
35258;DHT22;21385;50.878;8.050;2024-02-16T05:40:19;11.70;99.90
35258;DHT22;21385;50.878;8.050;2024-02-16T05:42:52;11.80;99.90
35258;DHT22;21385;50.878;8.050;2024-02-16T05:45:19;11.80;99.90
35258;DHT22;21385;50.878;8.050;2024-02-16T05:47:45;11.70;99.90
35258;DHT22;21385;50.878;8.050;2024-02-16T05:50:12;11.70;99.90
35258;DHT22;21385;50.878;8.050;2024-02-16T05:52:41;11.80;99.90
35258;DHT22;21385;50.878;8.050;2024-02-16T05:55:10;11.70;99.90
35258;DHT22;21385;50.878;8.050;2024-02-16T05:57:37;11.70;99.90
35258;DHT22;21385;50.878;8.050;2024-02-16T06:00:07;11.70;99.90
35258;DHT22;21385;50.878;8.050;2024-02-16T06:02:34;11.70;99.90
35258;DHT22;21385;50.878;8.050;2024-02-16T06:05:03;11.70;99.90
35258;DHT22;21385;50.878;8.050;2024-02-16T06:07:29;11.60;99.90
35258;DHT22;21385;50.878;8.050;2024-02-16T06:09:58;11.70;99.90
35258;DHT22;21385;50.878;8.050;2024-02-16T06:12:24;11.70;99.90
35258;DHT22;21385;50.878;8.050;2024-02-16T06:14:50;11.70;99.90
35258;DHT22;21385;50.878;8.050;2024-02-16T06:17:16;11.70;99.90
35258;DHT22;21385;50.878;8.050;2024-02-16T06:19:42;11.80;99.90
35258;DHT22;21385;50.878;8.050;2024-02-16T06:22:08;11.70;99.90
35258;DHT22;21385;50.878;8.050;2024-02-16T06:24:35;11.70;99.90
35258;DHT22;21385;50.878;8.050;2024-02-16T06:27:01;11.70;99.90
35258;DHT22;21385;50.878;8.050;2024-02-16T06:29:26;11.60;99.90
35258;DHT22;21385;50.878;8.050;2024-02-16T06:31:52;11.50;99.90
35258;DHT22;21385;50.878;8.050;2024-02-16T06:34:18;11.50;99.90
35258;DHT22;21385;50.878;8.050;2024-02-16T06:36:44;11.50;99.90
35258;DHT22;21385;50.878;8.050;2024-02-16T06:39:11;11.50;99.90
35258;DHT22;21385;50.878;8.050;2024-02-16T06:41:37;11.50;99.90
35258;DHT22;21385;50.878;8.050;2024-02-16T06:44:04;11.50;99.90
35258;DHT22;21385;50.878;8.050;2024-02-16T06:46:29;11.50;99.90
35258;DHT22;21385;50.878;8.050;2024-02-16T06:48:55;11.60;99.90
35258;DHT22;21385;50.878;8.050;2024-02-16T06:51:24;11.50;99.90
35258;DHT22;21385;50.878;8.050;2024-02-16T06:53:50;11.60;99.90
35258;DHT22;21385;50.878;8.050;2024-02-16T06:56:16;11.60;99.90
35258;DHT22;21385;50.878;8.050;2024-02-16T06:58:43;11.60;99.90
35258;DHT22;21385;50.878;8.050;2024-02-16T07:01:09;11.60;99.90
35258;DHT22;21385;50.878;8.050;2024-02-16T07:03:35;11.50;99.90
35258;DHT22;21385;50.878;8.050;2024-02-16T07:06:04;11.50;99.90
35258;DHT22;21385;50.878;8.050;2024-02-16T07:08:33;11.40;99.90
35258;DHT22;21385;50.878;8.050;2024-02-16T07:10:59;11.40;99.90
35258;DHT22;21385;50.878;8.050;2024-02-16T07:13:24;11.40;99.90
35258;DHT22;21385;50.878;8.050;2024-02-16T07:15:50;11.50;99.90
35258;DHT22;21385;50.878;8.050;2024-02-16T07:18:16;11.50;99.90
35258;DHT22;21385;50.878;8.050;2024-02-16T07:20:41;11.50;99.90
35258;DHT22;21385;50.878;8.050;2024-02-16T07:23:07;11.50;99.90
35258;DHT22;21385;50.878;8.050;2024-02-16T07:25:35;11.60;99.90
35258;DHT22;21385;50.878;8.050;2024-02-16T07:28:00;11.60;99.90
35258;DHT22;21385;50.878;8.050;2024-02-16T07:30:26;11.60;99.90
35258;DHT22;21385;50.878;8.050;2024-02-16T07:32:52;11.60;99.90
35258;DHT22;21385;50.878;8.050;2024-02-16T07:35:18;11.60;99.90
35258;DHT22;21385;50.878;8.050;2024-02-16T07:37:44;11.60;99.90
35258;DHT22;21385;50.878;8.050;2024-02-16T07:40:09;11.60;99.90
35258;DHT22;21385;50.878;8.050;2024-02-16T07:42:41;11.60;99.90
35258;DHT22;21385;50.878;8.050;2024-02-16T07:45:08;11.60;99.90
35258;DHT22;21385;50.878;8.050;2024-02-16T07:47:35;11.60;99.90
35258;DHT22;21385;50.878;8.050;2024-02-16T07:50:00;11.70;99.90
35258;DHT22;21385;50.878;8.050;2024-02-16T07:52:26;11.70;99.90
35258;DHT22;21385;50.878;8.050;2024-02-16T07:54:52;11.70;99.90
35258;DHT22;21385;50.878;8.050;2024-02-16T07:57:17;11.80;99.90
35258;DHT22;21385;50.878;8.050;2024-02-16T07:59:43;11.80;99.90
35258;DHT22;21385;50.878;8.050;2024-02-16T08:02:09;11.80;99.90
35258;DHT22;21385;50.878;8.050;2024-02-16T08:04:35;11.90;99.90
35258;DHT22;21385;50.878;8.050;2024-02-16T08:07:01;11.90;99.90
35258;DHT22;21385;50.878;8.050;2024-02-16T08:09:27;12.10;99.90
35258;DHT22;21385;50.878;8.050;2024-02-16T08:11:53;12.10;99.90
35258;DHT22;21385;50.878;8.050;2024-02-16T08:14:18;12.10;99.90
35258;DHT22;21385;50.878;8.050;2024-02-16T08:16:44;12.20;99.90
35258;DHT22;21385;50.878;8.050;2024-02-16T08:19:10;12.20;99.90
35258;DHT22;21385;50.878;8.050;2024-02-16T08:21:35;12.20;99.90
35258;DHT22;21385;50.878;8.050;2024-02-16T08:24:01;12.20;99.90
35258;DHT22;21385;50.878;8.050;2024-02-16T08:26:26;12.30;99.90
35258;DHT22;21385;50.878;8.050;2024-02-16T08:28:52;12.30;99.90
35258;DHT22;21385;50.878;8.050;2024-02-16T08:31:18;12.30;99.90
35258;DHT22;21385;50.878;8.050;2024-02-16T08:33:45;12.40;99.90
35258;DHT22;21385;50.878;8.050;2024-02-16T08:36:12;12.30;99.90
35258;DHT22;21385;50.878;8.050;2024-02-16T08:38:37;12.40;99.90
35258;DHT22;21385;50.878;8.050;2024-02-16T08:41:03;12.50;99.90
35258;DHT22;21385;50.878;8.050;2024-02-16T08:43:29;12.60;99.90
35258;DHT22;21385;50.878;8.050;2024-02-16T08:45:54;12.70;99.90
35258;DHT22;21385;50.878;8.050;2024-02-16T08:48:20;12.80;99.90
35258;DHT22;21385;50.878;8.050;2024-02-16T08:50:46;12.80;99.90
35258;DHT22;21385;50.878;8.050;2024-02-16T08:53:11;12.90;99.90
35258;DHT22;21385;50.878;8.050;2024-02-16T08:55:37;13.00;99.90
35258;DHT22;21385;50.878;8.050;2024-02-16T08:58:02;13.10;99.90
35258;DHT22;21385;50.878;8.050;2024-02-16T09:00:28;13.20;99.90
35258;DHT22;21385;50.878;8.050;2024-02-16T09:02:54;13.20;99.90
35258;DHT22;21385;50.878;8.050;2024-02-16T09:05:20;13.20;99.90
35258;DHT22;21385;50.878;8.050;2024-02-16T09:07:46;13.30;99.90
35258;DHT22;21385;50.878;8.050;2024-02-16T09:10:14;13.30;99.90
35258;DHT22;21385;50.878;8.050;2024-02-16T09:12:40;13.50;99.90
35258;DHT22;21385;50.878;8.050;2024-02-16T09:15:06;13.60;99.90
35258;DHT22;21385;50.878;8.050;2024-02-16T09:17:32;13.70;99.90
35258;DHT22;21385;50.878;8.050;2024-02-16T09:19:57;13.90;99.90
35258;DHT22;21385;50.878;8.050;2024-02-16T09:22:23;14.00;99.90
35258;DHT22;21385;50.878;8.050;2024-02-16T09:24:49;14.30;99.90
35258;DHT22;21385;50.878;8.050;2024-02-16T09:27:14;14.40;99.90
35258;DHT22;21385;50.878;8.050;2024-02-16T09:29:40;14.60;99.90
35258;DHT22;21385;50.878;8.050;2024-02-16T09:32:06;14.80;99.90
35258;DHT22;21385;50.878;8.050;2024-02-16T09:34:32;14.90;99.90
35258;DHT22;21385;50.878;8.050;2024-02-16T09:36:57;15.10;99.90
35258;DHT22;21385;50.878;8.050;2024-02-16T09:39:23;15.20;99.90
35258;DHT22;21385;50.878;8.050;2024-02-16T09:41:50;15.30;99.90
35258;DHT22;21385;50.878;8.050;2024-02-16T09:44:18;15.30;99.90
35258;DHT22;21385;50.878;8.050;2024-02-16T09:46:45;15.30;99.90
35258;DHT22;21385;50.878;8.050;2024-02-16T09:49:11;15.30;99.90
35258;DHT22;21385;50.878;8.050;2024-02-16T09:51:37;15.20;99.90
35258;DHT22;21385;50.878;8.050;2024-02-16T09:54:03;15.20;99.90
35258;DHT22;21385;50.878;8.050;2024-02-16T09:56:29;15.20;99.90
35258;DHT22;21385;50.878;8.050;2024-02-16T09:58:55;15.30;99.90
35258;DHT22;21385;50.878;8.050;2024-02-16T10:01:21;15.40;99.90
35258;DHT22;21385;50.878;8.050;2024-02-16T10:03:49;15.30;99.90
35258;DHT22;21385;50.878;8.050;2024-02-16T10:06:15;15.40;99.90
35258;DHT22;21385;50.878;8.050;2024-02-16T10:08:49;15.40;99.90
35258;DHT22;21385;50.878;8.050;2024-02-16T10:11:16;15.40;99.90
35258;DHT22;21385;50.878;8.050;2024-02-16T10:14:05;15.40;99.90
35258;DHT22;21385;50.878;8.050;2024-02-16T10:16:30;15.50;99.90
35258;DHT22;21385;50.878;8.050;2024-02-16T10:19:03;15.40;99.90
35258;DHT22;21385;50.878;8.050;2024-02-16T10:21:30;15.30;99.90
35258;DHT22;21385;50.878;8.050;2024-02-16T10:24:20;15.40;99.90
35258;DHT22;21385;50.878;8.050;2024-02-16T10:26:46;15.50;99.90
35258;DHT22;21385;50.878;8.050;2024-02-16T10:29:12;15.60;99.90
35258;DHT22;21385;50.878;8.050;2024-02-16T10:31:39;15.70;99.90
35258;DHT22;21385;50.878;8.050;2024-02-16T10:34:05;15.70;99.90
35258;DHT22;21385;50.878;8.050;2024-02-16T10:36:33;15.90;99.90
35258;DHT22;21385;50.878;8.050;2024-02-16T10:39:00;16.20;99.90
35258;DHT22;21385;50.878;8.050;2024-02-16T10:41:34;16.40;99.90
35258;DHT22;21385;50.878;8.050;2024-02-16T10:44:03;16.50;99.90
35258;DHT22;21385;50.878;8.050;2024-02-16T10:46:33;16.40;99.90
35258;DHT22;21385;50.878;8.050;2024-02-16T10:48:59;16.40;99.90
35258;DHT22;21385;50.878;8.050;2024-02-16T10:51:45;16.40;99.90
35258;DHT22;21385;50.878;8.050;2024-02-16T10:54:13;16.50;99.90
35258;DHT22;21385;50.878;8.050;2024-02-16T10:56:41;16.70;99.90
35258;DHT22;21385;50.878;8.050;2024-02-16T10:59:10;16.90;99.90
35258;DHT22;21385;50.878;8.050;2024-02-16T11:01:44;17.00;99.90
35258;DHT22;21385;50.878;8.050;2024-02-16T11:04:17;16.80;99.90
35258;DHT22;21385;50.878;8.050;2024-02-16T11:06:51;16.50;99.90
35258;DHT22;21385;50.878;8.050;2024-02-16T11:09:27;16.40;99.90
35258;DHT22;21385;50.878;8.050;2024-02-16T11:11:59;16.20;99.90
35258;DHT22;21385;50.878;8.050;2024-02-16T11:14:38;16.20;99.90
35258;DHT22;21385;50.878;8.050;2024-02-16T11:17:14;16.00;99.90
35258;DHT22;21385;50.878;8.050;2024-02-16T11:19:44;16.00;99.90
35258;DHT22;21385;50.878;8.050;2024-02-16T11:22:10;15.70;99.90
35258;DHT22;21385;50.878;8.050;2024-02-16T11:24:38;15.50;99.90
35258;DHT22;21385;50.878;8.050;2024-02-16T11:27:08;15.50;99.90
35258;DHT22;21385;50.878;8.050;2024-02-16T11:29:38;15.40;99.90
35258;DHT22;21385;50.878;8.050;2024-02-16T11:32:05;15.50;99.90
35258;DHT22;21385;50.878;8.050;2024-02-16T11:34:32;15.60;99.90
35258;DHT22;21385;50.878;8.050;2024-02-16T11:36:59;15.50;99.90
35258;DHT22;21385;50.878;8.050;2024-02-16T11:39:25;15.40;99.90
35258;DHT22;21385;50.878;8.050;2024-02-16T11:42:02;15.40;99.90
35258;DHT22;21385;50.878;8.050;2024-02-16T11:44:29;15.50;99.90
35258;DHT22;21385;50.878;8.050;2024-02-16T11:46:55;15.60;99.90
35258;DHT22;21385;50.878;8.050;2024-02-16T11:49:21;15.70;99.90
35258;DHT22;21385;50.878;8.050;2024-02-16T11:51:47;15.70;99.90
35258;DHT22;21385;50.878;8.050;2024-02-16T11:54:13;15.70;99.90
35258;DHT22;21385;50.878;8.050;2024-02-16T11:56:47;15.70;99.90
35258;DHT22;21385;50.878;8.050;2024-02-16T11:59:16;15.80;99.90
35258;DHT22;21385;50.878;8.050;2024-02-16T12:01:56;15.90;99.90
35258;DHT22;21385;50.878;8.050;2024-02-16T12:09:22;15.60;99.90
35258;DHT22;21385;50.878;8.050;2024-02-16T12:11:52;15.70;99.90
35258;DHT22;21385;50.878;8.050;2024-02-16T12:14:18;15.60;99.90
35258;DHT22;21385;50.878;8.050;2024-02-16T12:16:51;15.40;99.90
35258;DHT22;21385;50.878;8.050;2024-02-16T12:19:20;15.40;99.90
35258;DHT22;21385;50.878;8.050;2024-02-16T12:21:55;15.30;99.90
35258;DHT22;21385;50.878;8.050;2024-02-16T12:24:24;15.40;99.90
35258;DHT22;21385;50.878;8.050;2024-02-16T12:26:50;15.40;99.90
35258;DHT22;21385;50.878;8.050;2024-02-16T12:29:16;15.60;99.90
35258;DHT22;21385;50.878;8.050;2024-02-16T12:31:43;15.70;99.90
35258;DHT22;21385;50.878;8.050;2024-02-16T12:34:10;15.80;99.90
35258;DHT22;21385;50.878;8.050;2024-02-16T12:36:36;15.60;99.90
35258;DHT22;21385;50.878;8.050;2024-02-16T12:39:02;15.50;99.90
35258;DHT22;21385;50.878;8.050;2024-02-16T12:41:30;15.40;99.90
35258;DHT22;21385;50.878;8.050;2024-02-16T12:43:56;15.40;99.90
35258;DHT22;21385;50.878;8.050;2024-02-16T12:46:21;15.50;99.90
35258;DHT22;21385;50.878;8.050;2024-02-16T12:48:47;15.60;99.90
35258;DHT22;21385;50.878;8.050;2024-02-16T12:51:13;15.70;99.90
35258;DHT22;21385;50.878;8.050;2024-02-16T12:53:39;15.80;99.90
35258;DHT22;21385;50.878;8.050;2024-02-16T12:56:08;15.80;99.90
35258;DHT22;21385;50.878;8.050;2024-02-16T12:58:35;15.80;99.90
35258;DHT22;21385;50.878;8.050;2024-02-16T13:01:01;15.70;99.90
35258;DHT22;21385;50.878;8.050;2024-02-16T13:03:27;15.60;99.90
35258;DHT22;21385;50.878;8.050;2024-02-16T13:05:53;15.60;99.90
35258;DHT22;21385;50.878;8.050;2024-02-16T13:08:18;15.50;99.90
35258;DHT22;21385;50.878;8.050;2024-02-16T13:10:44;15.50;99.90
35258;DHT22;21385;50.878;8.050;2024-02-16T13:13:09;15.50;99.90
35258;DHT22;21385;50.878;8.050;2024-02-16T13:15:35;15.50;99.90
35258;DHT22;21385;50.878;8.050;2024-02-16T13:18:01;15.40;99.90
35258;DHT22;21385;50.878;8.050;2024-02-16T13:20:27;15.20;99.90
35258;DHT22;21385;50.878;8.050;2024-02-16T13:22:52;15.10;99.90
35258;DHT22;21385;50.878;8.050;2024-02-16T13:25:19;15.00;99.90
35258;DHT22;21385;50.878;8.050;2024-02-16T13:27:45;14.90;99.90
35258;DHT22;21385;50.878;8.050;2024-02-16T13:30:11;14.80;99.90
35258;DHT22;21385;50.878;8.050;2024-02-16T13:32:37;14.60;99.90
35258;DHT22;21385;50.878;8.050;2024-02-16T13:35:06;14.50;99.90
35258;DHT22;21385;50.878;8.050;2024-02-16T13:37:32;14.30;99.90
35258;DHT22;21385;50.878;8.050;2024-02-16T13:39:57;14.30;99.90
35258;DHT22;21385;50.878;8.050;2024-02-16T13:42:23;14.30;99.90
35258;DHT22;21385;50.878;8.050;2024-02-16T13:44:49;14.20;99.90
35258;DHT22;21385;50.878;8.050;2024-02-16T13:47:15;14.20;99.90
35258;DHT22;21385;50.878;8.050;2024-02-16T13:49:40;14.20;99.90
35258;DHT22;21385;50.878;8.050;2024-02-16T13:52:06;14.00;99.90
35258;DHT22;21385;50.878;8.050;2024-02-16T13:54:34;14.10;99.90
35258;DHT22;21385;50.878;8.050;2024-02-16T13:57:00;14.00;99.90
35258;DHT22;21385;50.878;8.050;2024-02-16T13:59:26;14.00;99.90
35258;DHT22;21385;50.878;8.050;2024-02-16T14:01:53;14.00;99.90
35258;DHT22;21385;50.878;8.050;2024-02-16T14:04:18;14.00;99.90
35258;DHT22;21385;50.878;8.050;2024-02-16T14:06:45;14.10;99.90
35258;DHT22;21385;50.878;8.050;2024-02-16T14:09:11;14.10;99.90
35258;DHT22;21385;50.878;8.050;2024-02-16T14:11:39;14.10;99.90
35258;DHT22;21385;50.878;8.050;2024-02-16T14:14:07;14.20;99.90
35258;DHT22;21385;50.878;8.050;2024-02-16T14:16:33;14.30;99.90
35258;DHT22;21385;50.878;8.050;2024-02-16T14:18:59;14.30;99.90
35258;DHT22;21385;50.878;8.050;2024-02-16T14:21:24;14.30;99.90
35258;DHT22;21385;50.878;8.050;2024-02-16T14:23:51;14.30;99.90
35258;DHT22;21385;50.878;8.050;2024-02-16T14:26:16;14.30;99.90
35258;DHT22;21385;50.878;8.050;2024-02-16T14:28:43;14.20;99.90
35258;DHT22;21385;50.878;8.050;2024-02-16T14:31:08;14.20;99.90
35258;DHT22;21385;50.878;8.050;2024-02-16T14:33:34;14.20;99.90
35258;DHT22;21385;50.878;8.050;2024-02-16T14:36:00;14.30;99.90
35258;DHT22;21385;50.878;8.050;2024-02-16T14:40:53;14.30;99.90
35258;DHT22;21385;50.878;8.050;2024-02-16T14:43:18;14.30;99.90
35258;DHT22;21385;50.878;8.050;2024-02-16T14:45:44;14.20;99.90
35258;DHT22;21385;50.878;8.050;2024-02-16T14:48:09;14.20;99.90
35258;DHT22;21385;50.878;8.050;2024-02-16T14:50:37;14.10;99.90
35258;DHT22;21385;50.878;8.050;2024-02-16T14:53:02;14.00;99.90
35258;DHT22;21385;50.878;8.050;2024-02-16T14:55:30;14.00;99.90
35258;DHT22;21385;50.878;8.050;2024-02-16T14:57:59;14.00;99.90
35258;DHT22;21385;50.878;8.050;2024-02-16T15:00:24;14.00;99.90
35258;DHT22;21385;50.878;8.050;2024-02-16T15:02:50;14.00;99.90
35258;DHT22;21385;50.878;8.050;2024-02-16T15:05:16;13.90;99.90
35258;DHT22;21385;50.878;8.050;2024-02-16T15:07:43;13.90;99.90
35258;DHT22;21385;50.878;8.050;2024-02-16T15:10:08;13.90;99.90
35258;DHT22;21385;50.878;8.050;2024-02-16T15:12:35;13.90;99.90
35258;DHT22;21385;50.878;8.050;2024-02-16T15:15:01;14.00;99.90
35258;DHT22;21385;50.878;8.050;2024-02-16T15:17:27;14.00;99.90
35258;DHT22;21385;50.878;8.050;2024-02-16T15:19:53;14.00;99.90
35258;DHT22;21385;50.878;8.050;2024-02-16T15:22:18;14.00;99.90
35258;DHT22;21385;50.878;8.050;2024-02-16T15:24:44;14.00;99.90
35258;DHT22;21385;50.878;8.050;2024-02-16T15:27:09;13.90;99.90
35258;DHT22;21385;50.878;8.050;2024-02-16T15:29:35;13.90;99.90
35258;DHT22;21385;50.878;8.050;2024-02-16T15:32:01;13.90;99.90
35258;DHT22;21385;50.878;8.050;2024-02-16T15:34:27;13.90;99.90